27PA weather

Fort Lee Heliport
Nicktown, Pennsylvania, United States

Public forecast

Using degrees Fahrenheit for public forecast. Weather courtesy of forecast.io.

Closest aviation weather report (METAR) to Fort Lee Heliport

Closest report is Indiana County/Jimmy Stewart Fld/ Airport, 12.7 nm (23.6 km) W. Retrieved 2019/11/15 09:35 UTC (0 seconds ago):

KIDI 150935Z AUTO 00000KT 10SM CLR M04/M06 A3027 RMK A01

Closest aviation forecast (TAF) to Fort Lee Heliport

Closest forecast is John Murtha Johnstown Cambria County Airport, 20.1 nm (37.3 km) S. Retrieved 2019/11/15 06:24 UTC (3 hours ago):

TAF KJST 150522Z 1506/1606 26007KT P6SM SKC FM151500 26009KT P6SM SKC